Time;durP1;ratioP1;P1;durP2;ratioP2;P2;SDS_P1;SDS_P2;PMS_P1;PMS_P2;Temp;Humidity;BMP_temperature;BMP_pressure;BME280_temperature;BME280_humidity;BME280_pressure;Samples;Min_cycle;Max_cycle;Signal;HPM_P1;HPM_P2
2021/12/27 00:01:41;;;;;;;;;;;;;;;-8.09;79.95;97900.56;1744633;81;24775;-85
2021/12/27 00:04:07;;;;;;;;;;;;;;;-8.17;79.97;97887.89;1700449;82;22018;-85
2021/12/27 00:06:33;;;;;;;;;;;;;;;-8.18;80.02;97892.55;1670905;84;26028;-84
2021/12/27 00:08:59;;;;;;;;;;;;;;;-8.05;80.15;97894.19;1692687;82;25245;-84
2021/12/27 00:11:26;;;;;;;;;;;;;;;-7.84;80.31;97889.83;1742654;80;20281;-84
2021/12/27 00:13:52;;;;;;;;;;;;;;;-7.88;80.37;97891.55;1753613;80;24751;-84
2021/12/27 00:16:18;;;;;;;;;;;;;;;-7.92;80.41;97885.23;1743420;81;21944;-84
2021/12/27 00:18:44;;;;;;;;;;;;;;;-7.97;80.43;97883.16;1753581;81;25933;-84
2021/12/27 00:21:11;;;;;;;;;;;;;;;-7.81;80.57;97888.13;1743141;81;24507;-83
2021/12/27 00:23:37;;;;;;;;;;;;;;;-7.59;80.73;97881.21;1746558;80;20279;-83
2021/12/27 00:26:03;;;;;;;;;;;;;;;-7.61;80.81;97872.32;1737728;81;24816;-84
2021/12/27 00:28:30;;;;;;;;;;;;;;;-7.63;80.87;97876.98;1740267;81;21964;-84
2021/12/27 00:30:57;;;;;;;;;;;;;;;-7.64;80.92;97873.59;1743554;81;25960;-84
2021/12/27 00:33:23;;;;;;;;;;;;;;;-7.74;80.93;97872.41;1745201;81;24428;-84
2021/12/27 00:35:50;;;;;;;;;;;;;;;-7.80;80.92;97872.02;1747765;81;20414;-84
2021/12/27 00:38:16;;;;;;;;;;;;;;;-7.91;80.89;97867.47;1727837;81;24820;-84
2021/12/27 00:40:43;;;;;;;;;;;;;;;-7.91;80.88;97876.34;1750902;80;21949;-84
2021/12/27 00:43:09;;;;;;;;;;;;;;;-7.76;80.96;97865.24;1745365;81;25960;-84
2021/12/27 00:45:35;;;;;;;;;;;;;;;-7.76;80.96;97875.40;1746998;81;24408;-84
2021/12/27 00:48:01;;;;;;;;;;;;;;;-7.68;81.06;97874.91;1739425;81;20350;-84
2021/12/27 00:50:28;;;;;;;;;;;;;;;-7.60;81.17;97874.44;1732359;81;25705;-84
2021/12/27 00:52:54;;;;;;;;;;;;;;;-7.65;81.19;97869.82;1737031;80;21978;-83
2021/12/27 00:55:20;;;;;;;;;;;;;;;-7.79;81.17;97872.44;1741800;80;26708;-84
2021/12/27 00:57:46;;;;;;;;;;;;;;;-7.79;81.19;97880.48;1744343;81;24480;-84
2021/12/27 01:00:16;;;;;;;;;;;;;;;-7.72;81.23;97877.91;1736950;81;20286;-84
2021/12/27 01:02:43;;;;;;;;;;;;;;;-7.76;81.25;97883.86;1738595;81;24798;-84
2021/12/27 01:05:10;;;;;;;;;;;;;;;-7.75;81.27;97877.94;1740923;81;22045;-85
2021/12/27 01:07:36;;;;;;;;;;;;;;;-7.84;81.23;97884.33;1711385;82;26058;-84
2021/12/27 01:10:33;;;;;;;;;;;;;;;-7.89;81.23;97886.05;1744598;81;24537;-84
2021/12/27 01:13:04;;;;;;;;;;;;;;;-7.92;81.21;97884.81;1749134;81;20246;-84
2021/12/27 01:17:49;;;;;;;;;;;;;;;-8.05;81.17;97876.84;1746317;81;22067;-84
2021/12/27 01:20:19;;;;;;;;;;;;;;;-8.06;81.17;97879.80;1748775;81;26060;-84
2021/12/27 01:22:46;;;;;;;;;;;;;;;-8.05;81.18;97878.95;1749114;81;24431;-84
2021/12/27 01:25:12;;;;;;;;;;;;;;;-8.04;81.19;97873.45;1752023;80;20151;-83
2021/12/27 01:27:40;;;;;;;;;;;;;;;-8.07;81.19;97870.49;1743988;81;24956;-84
2021/12/27 01:30:08;;;;;;;;;;;;;;;-8.09;81.20;97867.56;1748455;80;22093;-84
2021/12/27 01:32:39;;;;;;;;;;;;;;;-8.06;81.24;97873.45;1749043;81;26020;-84
2021/12/27 01:35:01;;;;;;;;;;;;;;;-8.05;81.26;97861.61;1749821;80;25169;-84
2021/12/27 01:37:28;;;;;;;;;;;;;;;-7.98;81.33;97867.50;1750645;80;20242;-84
2021/12/27 01:39:54;;;;;;;;;;;;;;;-7.96;81.37;97862.00;1746626;81;24775;-84
2021/12/27 01:42:20;;;;;;;;;;;;;;;-7.95;81.40;97861.12;1744300;81;22001;-84
2021/12/27 01:44:46;;;;;;;;;;;;;;;-7.87;81.48;97861.50;1745727;81;25942;-84
2021/12/27 01:47:12;;;;;;;;;;;;;;;-7.86;81.54;97854.31;1744657;81;24493;-84
2021/12/27 01:49:38;;;;;;;;;;;;;;;-7.65;81.67;97853.31;1750255;81;20205;-83
2021/12/27 01:52:05;;;;;;;;;;;;;;;-7.76;81.66;97853.81;1746009;80;26046;-84
2021/12/27 01:54:32;;;;;;;;;;;;;;;-7.79;81.65;97855.09;1747226;80;22141;-84
2021/12/27 01:57:00;;;;;;;;;;;;;;;-7.69;81.72;97851.20;1750485;81;26048;-85
2021/12/27 01:59:26;;;;;;;;;;;;;;;-7.75;81.69;97857.63;1746977;81;24452;-85
2021/12/27 02:01:52;;;;;;;;;;;;;;;-7.82;81.63;97856.39;1750036;81;20202;-85
2021/12/27 02:04:19;;;;;;;;;;;;;;;-7.83;81.62;97863.16;1748291;81;24738;-85
2021/12/27 02:06:45;;;;;;;;;;;;;;;-7.74;81.67;97862.24;1745427;81;22055;-85
2021/12/27 02:09:11;;;;;;;;;;;;;;;-7.58;81.73;97856.20;1746153;81;26023;-85
2021/12/27 02:11:38;;;;;;;;;;;;;;;-7.66;81.67;97857.97;1743048;81;24548;-84
2021/12/27 02:14:08;;;;;;;;;;;;;;;-7.57;81.70;97865.93;1713696;81;20562;-85
2021/12/27 02:16:35;;;;;;;;;;;;;;;-7.43;81.76;97861.61;1743646;81;24810;-85
2021/12/27 02:19:01;;;;;;;;;;;;;;;-7.35;81.78;97858.56;1752436;80;22133;-84
2021/12/27 02:21:27;;;;;;;;;;;;;;;-7.34;81.76;97858.98;1751017;80;25953;-85
2021/12/27 02:23:54;;;;;;;;;;;;;;;-7.28;81.77;97854.69;1730866;80;24472;-85
2021/12/27 02:26:21;;;;;;;;;;;;;;;-7.48;81.64;97850.22;1762676;80;20276;-85
2021/12/27 02:28:48;;;;;;;;;;;;;;;-7.65;81.53;97848.23;1675493;85;25024;-85
2021/12/27 02:31:15;;;;;;;;;;;;;;;-7.79;81.41;97836.04;1710026;81;21949;-84
2021/12/27 02:33:42;;;;;;;;;;;;;;;-7.92;81.26;97838.27;1723222;81;26100;-84
2021/12/27 02:36:11;;;;;;;;;;;;;;;-8.03;81.13;97833.27;1716201;81;25095;-84
2021/12/27 02:38:39;;;;;;;;;;;;;;;-8.07;81.04;97828.61;1738070;81;20237;-84
2021/12/27 02:41:05;;;;;;;;;;;;;;;-8.00;81.00;97832.38;1731342;81;24807;-84
2021/12/27 02:43:32;;;;;;;;;;;;;;;-8.01;80.96;97836.61;1739106;81;21933;-84
2021/12/27 02:46:00;;;;;;;;;;;;;;;-8.14;80.85;97835.02;1729423;81;26055;-84
2021/12/27 02:48:27;;;;;;;;;;;;;;;-8.23;80.73;97834.63;1744624;81;24687;-84
2021/12/27 02:50:54;;;;;;;;;;;;;;;-8.32;80.60;97831.34;1726061;81;20174;-84
2021/12/27 02:53:22;;;;;;;;;;;;;;;-8.41;80.49;97836.05;1728381;81;24781;-85
2021/12/27 02:55:49;;;;;;;;;;;;;;;-8.51;80.38;97830.15;1725885;81;21988;-84
2021/12/27 02:58:18;;;;;;;;;;;;;;;-8.59;80.27;97829.78;1739334;80;25979;-84
2021/12/27 03:00:45;;;;;;;;;;;;;;;-8.64;80.19;97831.07;1754022;80;24467;-85
2021/12/27 03:03:13;;;;;;;;;;;;;;;-8.64;80.11;97828.95;1750207;81;20502;-84
2021/12/27 03:05:40;;;;;;;;;;;;;;;-8.61;80.08;97834.00;1753620;81;25030;-85
2021/12/27 03:08:14;;;;;;;;;;;;;;;-8.64;80.02;97832.77;1760021;81;22694;-85
2021/12/27 03:10:37;;;;;;;;;;;;;;;-8.63;79.99;97826.42;1760493;81;26029;-85
2021/12/27 03:13:04;;;;;;;;;;;;;;;-8.68;79.96;97818.42;1759011;81;24486;-84
2021/12/27 03:15:30;;;;;;;;;;;;;;;-8.49;80.05;97822.55;1758553;80;20942;-85
2021/12/27 03:17:56;;;;;;;;;;;;;;;-8.47;80.05;97820.43;1756729;81;24806;-85
2021/12/27 03:20:23;;;;;;;;;;;;;;;-8.49;80.03;97820.01;1757850;81;22038;-85
2021/12/27 03:22:50;;;;;;;;;;;;;;;-8.34;80.10;97822.45;1742953;81;26021;-85
2021/12/27 03:25:20;;;;;;;;;;;;;;;-8.40;80.07;97821.25;1739910;81;24455;-85
2021/12/27 03:27:47;;;;;;;;;;;;;;;-8.31;80.10;97824.16;1748935;81;20269;-86
2021/12/27 03:30:15;;;;;;;;;;;;;;;-8.13;80.19;97826.56;1755644;81;24728;-85
2021/12/27 03:32:41;;;;;;;;;;;;;;;-7.96;80.27;97833.61;1753812;81;21670;-86
2021/12/27 03:35:11;;;;;;;;;;;;;;;-7.88;80.30;97829.77;1752107;80;26016;-85
2021/12/27 03:37:37;;;;;;;;;;;;;;;-7.87;80.27;97831.46;1745725;81;24698;-84
2021/12/27 03:40:13;;;;;;;;;;;;;;;-7.86;80.25;97830.61;1747464;81;20292;-84
2021/12/27 03:42:39;;;;;;;;;;;;;;;-7.80;80.24;97835.65;1753246;81;24781;-84
2021/12/27 03:45:06;;;;;;;;;;;;;;;-7.79;80.21;97836.89;1740639;80;22221;-85
2021/12/27 03:47:32;;;;;;;;;;;;;;;-7.81;80.16;97832.69;1743694;81;26176;-84
2021/12/27 03:49:58;;;;;;;;;;;;;;;-7.84;80.07;97827.61;1738779;81;24486;-84
2021/12/27 03:52:24;;;;;;;;;;;;;;;-8.02;79.93;97831.95;1739991;81;20239;-84
2021/12/27 03:54:55;;;;;;;;;;;;;;;-8.28;79.75;97822.39;1742677;81;20364;-85
2021/12/27 03:57:21;;;;;;;;;;;;;;;-8.42;79.60;97825.48;1749991;80;21978;-84
2021/12/27 03:59:53;;;;;;;;;;;;;;;-8.35;79.58;97828.41;1747653;81;26175;-84
2021/12/27 04:02:15;;;;;;;;;;;;;;;-8.32;79.50;97832.19;1743916;81;24575;-85
2021/12/27 04:04:42;;;;;;;;;;;;;;;-8.40;79.38;97826.33;1739107;81;20216;-84
2021/12/27 04:07:09;;;;;;;;;;;;;;;-8.45;79.23;97828.47;1740620;81;24748;-84
2021/12/27 04:09:36;;;;;;;;;;;;;;;-8.67;79.03;97824.73;1742089;81;21908;-84
2021/12/27 04:12:02;;;;;;;;;;;;;;;-8.81;78.89;97829.44;1750397;81;26037;-84
2021/12/27 04:14:28;;;;;;;;;;;;;;;-8.73;78.87;97832.38;1706049;82;24385;-85
2021/12/27 04:16:54;;;;;;;;;;;;;;;-8.59;78.88;97827.24;1748510;81;20171;-85
2021/12/27 04:19:20;;;;;;;;;;;;;;;-8.55;78.88;97821.30;1752100;81;24785;-85
2021/12/27 04:21:47;;;;;;;;;;;;;;;-8.72;78.74;97816.72;1753576;81;21890;-84
2021/12/27 04:24:13;;;;;;;;;;;;;;;-8.86;78.62;97831.15;1751915;81;25956;-85
2021/12/27 04:26:40;;;;;;;;;;;;;;;-8.99;78.54;97826.11;1752301;81;24433;-85
2021/12/27 04:29:06;;;;;;;;;;;;;;;-9.05;78.46;97832.45;1750398;81;20728;-85
2021/12/27 04:31:32;;;;;;;;;;;;;;;-9.04;78.44;97827.81;1753153;81;24794;-84
2021/12/27 04:33:58;;;;;;;;;;;;;;;-8.92;78.48;97828.20;1753043;81;20395;-85
2021/12/27 04:36:26;;;;;;;;;;;;;;;-8.78;78.53;97824.38;1753378;80;26676;-85
2021/12/27 04:38:52;;;;;;;;;;;;;;;-8.79;78.52;97823.95;1751311;81;24508;-85
2021/12/27 04:41:20;;;;;;;;;;;;;;;-8.71;78.57;97839.54;1755097;81;20505;-84
2021/12/27 04:43:46;;;;;;;;;;;;;;;-8.52;78.65;97838.64;1752358;81;25555;-85
2021/12/27 04:46:12;;;;;;;;;;;;;;;-8.62;78.60;97833.61;1751760;81;21925;-85
2021/12/27 04:48:38;;;;;;;;;;;;;;;-8.71;78.57;97833.20;1749639;81;25923;-85
2021/12/27 04:51:04;;;;;;;;;;;;;;;-8.60;78.62;97826.82;1749291;81;24373;-84
2021/12/27 04:53:31;;;;;;;;;;;;;;;-8.51;78.65;97820.00;1750733;81;20306;-85
2021/12/27 04:55:57;;;;;;;;;;;;;;;-8.69;78.55;97814.19;1753005;81;24716;-84
2021/12/27 04:58:23;;;;;;;;;;;;;;;-8.91;78.42;97814.27;1752301;81;21940;-84
2021/12/27 05:00:50;;;;;;;;;;;;;;;-9.01;78.31;97822.76;1750723;81;26023;-84
2021/12/27 05:03:16;;;;;;;;;;;;;;;-9.08;78.25;97823.61;1750979;81;24388;-84
2021/12/27 05:05:45;;;;;;;;;;;;;;;-8.93;78.27;97827.36;1752510;80;20344;-84
2021/12/27 05:08:10;;;;;;;;;;;;;;;-8.77;78.35;97820.55;1752592;81;25457;-84
2021/12/27 05:10:36;;;;;;;;;;;;;;;-8.84;78.26;97819.33;1751082;81;22079;-84
2021/12/27 05:13:03;;;;;;;;;;;;;;;-8.98;78.19;97817.66;1755113;81;26593;-83
2021/12/27 05:15:29;;;;;;;;;;;;;;;-8.92;78.21;97815.11;1728918;81;24910;-85
2021/12/27 05:17:55;;;;;;;;;;;;;;;-8.95;78.20;97815.14;1728014;81;20221;-84
2021/12/27 05:20:22;;;;;;;;;;;;;;;-9.09;78.12;97814.73;1752516;81;20335;-84
2021/12/27 05:22:48;;;;;;;;;;;;;;;-9.14;78.07;97813.48;1750241;81;22142;-84
2021/12/27 05:25:16;;;;;;;;;;;;;;;-9.10;78.10;97807.55;1745459;80;26021;-84
2021/12/27 05:27:43;;;;;;;;;;;;;;;-9.21;78.02;97809.27;1748495;81;24700;-84
2021/12/27 05:30:11;;;;;;;;;;;;;;;-9.28;77.97;97810.58;1741083;80;20237;-84
2021/12/27 05:32:39;;;;;;;;;;;;;;;-9.32;77.90;97809.30;1747693;81;24791;-84
2021/12/27 05:35:05;;;;;;;;;;;;;;;-9.35;77.87;97813.53;1744083;81;22634;-84
2021/12/27 05:37:32;;;;;;;;;;;;;;;-9.43;77.83;97808.47;1753031;80;25922;-84
2021/12/27 05:40:04;;;;;;;;;;;;;;;-9.53;77.75;97811.02;1745249;80;24550;-84
2021/12/27 05:42:26;;;;;;;;;;;;;;;-9.59;77.69;97807.22;1749149;80;20219;-84
2021/12/27 05:44:52;;;;;;;;;;;;;;;-9.45;77.73;97810.17;1747150;80;24817;-84
2021/12/27 05:47:19;;;;;;;;;;;;;;;-9.48;77.71;97808.90;1756116;81;21915;-84
2021/12/27 05:49:45;;;;;;;;;;;;;;;-9.34;77.79;97803.83;1750106;81;25966;-83
2021/12/27 05:52:11;;;;;;;;;;;;;;;-9.11;77.91;97805.05;1755278;80;24397;-84
2021/12/27 05:54:38;;;;;;;;;;;;;;;-9.15;77.91;97801.66;1755119;80;20507;-84
2021/12/27 05:57:05;;;;;;;;;;;;;;;-9.36;77.81;97800.44;1742964;81;24905;-84
2021/12/27 05:59:31;;;;;;;;;;;;;;;-9.53;77.71;97805.95;1747556;81;21966;-84
2021/12/27 06:01:57;;;;;;;;;;;;;;;-9.66;77.63;97800.49;1747605;81;26084;-85
2021/12/27 06:04:24;;;;;;;;;;;;;;;-9.77;77.52;97803.88;1747015;81;25279;-85
2021/12/27 06:06:50;;;;;;;;;;;;;;;-9.83;77.47;97800.50;1748275;81;20204;-85
2021/12/27 06:09:16;;;;;;;;;;;;;;;-9.88;77.41;97793.33;1753821;81;24825;-85
2021/12/27 06:11:42;;;;;;;;;;;;;;;-9.99;77.33;97792.48;1750677;81;21990;-84
2021/12/27 06:14:08;;;;;;;;;;;;;;;-10.11;77.22;97797.53;1754525;81;26016;-84
2021/12/27 06:16:34;;;;;;;;;;;;;;;-10.12;77.18;97797.09;1758744;81;24579;-84
2021/12/27 06:19:00;;;;;;;;;;;;;;;-10.16;77.14;97797.11;1746861;81;20307;-84
2021/12/27 06:21:30;;;;;;;;;;;;;;;-10.17;77.11;97794.60;1755767;80;24716;-84
2021/12/27 06:23:57;;;;;;;;;;;;;;;-10.19;77.10;97783.63;1748968;80;21976;-84
2021/12/27 06:26:23;;;;;;;;;;;;;;;-10.21;77.11;97792.50;1745676;80;26041;-85
2021/12/27 06:28:49;;;;;;;;;;;;;;;-10.19;77.14;97790.80;1737756;80;24376;-86
2021/12/27 06:31:15;;;;;;;;;;;;;;;-10.18;77.15;97786.59;1735540;81;20331;-84
2021/12/27 06:33:41;;;;;;;;;;;;;;;-10.11;77.22;97793.73;1731143;81;24774;-85
2021/12/27 06:36:08;;;;;;;;;;;;;;;-9.91;77.37;97796.69;1735224;80;21959;-85
2021/12/27 06:38:34;;;;;;;;;;;;;;;-9.75;77.50;97799.64;1743771;80;25958;-85
2021/12/27 06:41:01;;;;;;;;;;;;;;;-9.60;77.63;97794.98;1752298;81;24458;-85
2021/12/27 06:43:28;;;;;;;;;;;;;;;-9.44;77.73;97796.67;1734058;81;20215;-85
2021/12/27 06:45:54;;;;;;;;;;;;;;;-9.41;77.82;97798.34;1741486;81;24804;-84
2021/12/27 06:48:20;;;;;;;;;;;;;;;-9.50;77.85;97798.37;1739851;81;22300;-85
2021/12/27 06:50:46;;;;;;;;;;;;;;;-9.65;77.83;97790.80;1737365;81;26114;-84
2021/12/27 06:53:13;;;;;;;;;;;;;;;-9.92;77.72;97783.61;1734234;80;24565;-84
2021/12/27 06:55:39;;;;;;;;;;;;;;;-10.13;77.59;97784.87;1729848;80;20219;-85
2021/12/27 06:58:05;;;;;;;;;;;;;;;-10.25;77.52;97791.20;1738954;81;24792;-83
2021/12/27 07:00:31;;;;;;;;;;;;;;;-10.30;77.45;97792.88;1739124;81;22070;-84
2021/12/27 07:02:57;;;;;;;;;;;;;;;-10.31;77.40;97797.55;1732916;81;26000;-84
2021/12/27 07:05:23;;;;;;;;;;;;;;;-10.31;77.39;97798.81;1742555;80;24357;-84
2021/12/27 07:07:49;;;;;;;;;;;;;;;-10.28;77.43;97793.74;1744233;81;20469;-84
2021/12/27 07:10:17;;;;;;;;;;;;;;;-10.28;77.45;97793.33;1735566;80;24798;-84
2021/12/27 07:12:43;;;;;;;;;;;;;;;-10.20;77.54;97795.42;1737784;81;21913;-84
2021/12/27 07:15:09;;;;;;;;;;;;;;;-10.11;77.63;97794.58;1731075;81;26015;-84
2021/12/27 07:17:35;;;;;;;;;;;;;;;-10.05;77.74;97791.21;1739566;81;24472;-85
2021/12/27 07:20:02;;;;;;;;;;;;;;;-10.06;77.79;97785.30;1738642;80;20256;-85
2021/12/27 07:22:28;;;;;;;;;;;;;;;-10.10;77.88;97783.63;1733512;81;24962;-85
2021/12/27 07:24:54;;;;;;;;;;;;;;;-10.05;77.95;97783.20;1746162;80;22033;-84
2021/12/27 07:27:20;;;;;;;;;;;;;;;-10.04;78.03;97784.89;1749698;80;25998;-84
2021/12/27 07:29:48;;;;;;;;;;;;;;;-10.04;78.10;97781.10;1748475;80;24388;-84
2021/12/27 07:32:14;;;;;;;;;;;;;;;-10.05;78.16;97783.20;1744253;81;20252;-84
2021/12/27 07:34:41;;;;;;;;;;;;;;;-9.99;78.25;97783.21;1750054;81;20245;-84
2021/12/27 07:37:07;;;;;;;;;;;;;;;-10.00;78.29;97784.47;1747231;81;22561;-84
2021/12/27 07:39:33;;;;;;;;;;;;;;;-9.99;78.36;97779.41;1745524;81;26159;-84
2021/12/27 07:42:00;;;;;;;;;;;;;;;-9.93;78.45;97784.48;1658098;84;24529;-84
2021/12/27 07:44:26;;;;;;;;;;;;;;;-9.90;78.54;97778.14;1715160;83;20576;-84
2021/12/27 07:46:52;;;;;;;;;;;;;;;-9.91;78.61;97785.30;1727140;80;24941;-84
2021/12/27 07:49:18;;;;;;;;;;;;;;;-9.92;78.68;97781.08;1736421;80;21989;-86
2021/12/27 07:51:45;;;;;;;;;;;;;;;-9.93;78.73;97777.30;1721940;82;26049;-85
2021/12/27 07:54:11;;;;;;;;;;;;;;;-9.94;78.78;97774.34;1744300;81;24493;-85
2021/12/27 07:56:37;;;;;;;;;;;;;;;-9.97;78.83;97772.65;1744175;81;20220;-85
2021/12/27 07:59:04;;;;;;;;;;;;;;;-9.91;78.91;97776.86;1740384;80;24785;-85
2021/12/27 08:01:32;;;;;;;;;;;;;;;-9.88;78.99;97775.61;1740807;81;21986;-83
2021/12/27 08:03:57;;;;;;;;;;;;;;;-9.85;79.09;97776.45;1745602;81;26114;-83
2021/12/27 08:06:24;;;;;;;;;;;;;;;-9.86;79.17;97781.08;1753005;81;24448;-83
2021/12/27 08:08:50;;;;;;;;;;;;;;;-9.82;79.26;97776.44;1746989;81;20188;-83
2021/12/27 08:11:16;;;;;;;;;;;;;;;-9.79;79.37;97775.19;1746878;80;24766;-84
2021/12/27 08:13:44;;;;;;;;;;;;;;;-9.79;79.45;97767.59;1746367;80;21971;-83
2021/12/27 08:16:11;;;;;;;;;;;;;;;-9.82;79.54;97761.25;1742059;80;25973;-83
2021/12/27 08:18:41;;;;;;;;;;;;;;;-9.84;79.59;97761.69;1748014;81;24505;-83
2021/12/27 08:21:07;;;;;;;;;;;;;;;-9.81;79.68;97765.89;1745218;81;20482;-84
2021/12/27 08:23:33;;;;;;;;;;;;;;;-9.77;79.78;97761.27;1744001;80;24746;-83
2021/12/27 08:25:59;;;;;;;;;;;;;;;-9.70;79.90;97764.61;1747284;81;22071;-84
2021/12/27 08:28:25;;;;;;;;;;;;;;;-9.62;80.05;97772.64;1752753;81;26051;-83
2021/12/27 08:30:51;;;;;;;;;;;;;;;-9.54;80.19;97770.08;1750407;81;24224;-84
2021/12/27 08:33:17;;;;;;;;;;;;;;;-9.52;80.33;97768.39;1758712;81;20215;-84
2021/12/27 08:35:44;;;;;;;;;;;;;;;-9.47;80.44;97766.69;1757501;81;25411;-84
2021/12/27 08:38:11;;;;;;;;;;;;;;;-9.39;80.62;97775.13;1756256;80;22035;-83
2021/12/27 08:40:37;;;;;;;;;;;;;;;-9.34;80.76;97777.23;1756662;80;26052;-84
2021/12/27 08:43:09;;;;;;;;;;;;;;;-9.22;80.92;97775.94;1754082;81;24463;-84
2021/12/27 08:45:35;;;;;;;;;;;;;;;-9.18;81.05;97764.94;1748145;81;20274;-84
2021/12/27 08:48:02;;;;;;;;;;;;;;;-9.11;81.20;97764.05;1751840;81;24941;-85
2021/12/27 08:50:28;;;;;;;;;;;;;;;-9.09;81.33;97762.79;1749800;81;22002;-85
2021/12/27 08:52:54;;;;;;;;;;;;;;;-9.07;81.42;97757.30;1759689;80;26066;-85
2021/12/27 08:55:23;;;;;;;;;;;;;;;-9.05;81.53;97753.05;1717438;81;24864;-85
2021/12/27 08:57:49;;;;;;;;;;;;;;;-9.07;81.60;97746.75;1755992;81;20213;-85
2021/12/27 09:00:16;;;;;;;;;;;;;;;-9.18;81.60;97742.14;1758220;81;24758;-85
2021/12/27 09:02:45;;;;;;;;;;;;;;;-9.20;81.64;97752.69;1760025;81;22052;-85
2021/12/27 09:05:11;;;;;;;;;;;;;;;-9.23;81.67;97746.80;1760059;81;26022;-85
2021/12/27 09:07:37;;;;;;;;;;;;;;;-9.25;81.69;97744.69;1752403;81;24428;-86
2021/12/27 09:10:05;;;;;;;;;;;;;;;-9.22;81.77;97745.55;1745460;81;20256;-86
2021/12/27 09:12:31;;;;;;;;;;;;;;;-9.17;81.86;97746.36;1756966;81;25481;-86
2021/12/27 09:14:57;;;;;;;;;;;;;;;-9.13;81.92;97739.16;1753062;81;22179;-86
2021/12/27 09:17:23;;;;;;;;;;;;;;;-9.09;82.03;97740.83;1755123;81;26007;-85
2021/12/27 09:19:50;;;;;;;;;;;;;;;-9.02;82.15;97740.39;1749349;81;24478;-86
2021/12/27 09:22:18;;;;;;;;;;;;;;;-8.97;82.25;97742.48;1750787;80;20288;-86
2021/12/27 09:24:44;;;;;;;;;;;;;;;-8.89;82.41;97746.65;1752057;81;25372;-86
2021/12/27 09:27:11;;;;;;;;;;;;;;;-8.81;82.53;97747.05;1757761;81;22145;-86
2021/12/27 09:29:38;;;;;;;;;;;;;;;-8.80;82.65;97741.98;1759636;81;26739;-86
2021/12/27 09:32:04;;;;;;;;;;;;;;;-8.83;82.71;97740.70;1760440;81;24550;-87
2021/12/27 09:34:31;;;;;;;;;;;;;;;-8.82;82.77;97737.33;1757148;81;20474;-86
2021/12/27 09:36:57;;;;;;;;;;;;;;;-8.80;82.81;97738.60;1759594;81;24826;-85
2021/12/27 09:39:23;;;;;;;;;;;;;;;-8.81;82.86;97736.91;1758303;81;22695;-84
2021/12/27 09:41:49;;;;;;;;;;;;;;;-8.79;82.92;97733.95;1730113;81;26381;-85
2021/12/27 09:44:15;;;;;;;;;;;;;;;-8.75;83.00;97730.54;1761403;81;20316;-84
2021/12/27 09:46:41;;;;;;;;;;;;;;;-8.71;83.07;97734.73;1759934;81;20590;-86
2021/12/27 09:49:09;;;;;;;;;;;;;;;-8.67;83.15;97735.16;1756469;81;24819;-86
2021/12/27 09:51:37;;;;;;;;;;;;;;;-8.63;83.22;97735.55;1754338;81;22852;-84
2021/12/27 09:54:04;;;;;;;;;;;;;;;-8.59;83.30;97737.22;1754481;81;25970;-84
2021/12/27 09:56:30;;;;;;;;;;;;;;;-8.54;83.40;97729.99;1760367;80;24399;-85
2021/12/27 09:58:56;;;;;;;;;;;;;;;-8.48;83.50;97731.65;1758090;80;20320;-84
2021/12/27 10:01:22;;;;;;;;;;;;;;;-8.39;83.58;97730.31;1758991;81;24743;-85
2021/12/27 10:03:53;;;;;;;;;;;;;;;-8.34;83.71;97724.78;1758274;81;21972;-84
2021/12/27 10:06:20;;;;;;;;;;;;;;;-8.33;83.77;97715.05;1755755;81;26148;-85
2021/12/27 10:08:47;;;;;;;;;;;;;;;-8.30;83.84;97713.78;1761802;81;24483;-84
2021/12/27 10:11:21;;;;;;;;;;;;;;;-8.26;83.91;97709.48;1756781;81;20163;-85
2021/12/27 10:13:58;;;;;;;;;;;;;;;-8.21;84.00;97707.75;1757440;81;24903;-84
2021/12/27 10:16:25;;;;;;;;;;;;;;;-8.15;84.06;97711.52;1756144;80;22161;-84
2021/12/27 10:18:54;;;;;;;;;;;;;;;-8.14;84.15;97716.58;1755347;81;26163;-85
2021/12/27 10:21:20;;;;;;;;;;;;;;;-8.09;84.19;97718.66;1758631;81;24554;-84
2021/12/27 10:23:47;;;;;;;;;;;;;;;-8.01;84.30;97718.58;1758257;81;20240;-84
2021/12/27 10:26:18;;;;;;;;;;;;;;;-7.97;84.36;97714.33;1760029;80;24704;-84
2021/12/27 10:28:45;;;;;;;;;;;;;;;-7.98;84.38;97707.14;1745990;81;21998;-84
2021/12/27 10:31:12;;;;;;;;;;;;;;;-7.96;84.41;97702.06;1751032;80;26760;-85
2021/12/27 10:33:42;;;;;;;;;;;;;;;-7.95;84.42;97707.52;1754136;81;24657;-84
2021/12/27 10:36:08;;;;;;;;;;;;;;;-7.94;84.47;97715.14;1754887;80;20430;-85
2021/12/27 10:38:37;;;;;;;;;;;;;;;-7.88;84.51;97710.02;1752910;80;24865;-84
2021/12/27 10:41:10;;;;;;;;;;;;;;;-7.87;84.53;97712.13;1754007;81;21957;-85
2021/12/27 10:43:50;;;;;;;;;;;;;;;-7.82;84.58;97710.38;1754490;81;26802;-85
2021/12/27 10:46:18;;;;;;;;;;;;;;;-7.81;84.63;97707.84;1748018;81;25103;-84
2021/12/27 10:48:49;;;;;;;;;;;;;;;-7.74;84.67;97722.14;1762881;81;20280;-84
2021/12/27 10:51:15;;;;;;;;;;;;;;;-7.73;84.72;97701.40;1751453;81;24916;-84
2021/12/27 10:53:43;;;;;;;;;;;;;;;-7.65;84.78;97705.99;1761075;80;21920;-84
2021/12/27 10:56:13;;;;;;;;;;;;;;;-7.61;84.84;97706.37;1755082;81;26563;-84
2021/12/27 10:58:41;;;;;;;;;;;;;;;-7.58;84.89;97698.70;1747114;81;24487;-84
2021/12/27 11:01:08;;;;;;;;;;;;;;;-7.58;84.91;97698.70;1749676;81;20247;-84
2021/12/27 11:03:37;;;;;;;;;;;;;;;-7.57;84.94;97693.19;1753433;81;24920;-85
2021/12/27 11:06:07;;;;;;;;;;;;;;;-7.56;84.93;97688.11;1757688;81;22762;-84
2021/12/27 11:08:35;;;;;;;;;;;;;;;-7.57;84.94;97691.92;1756277;81;25718;-85
2021/12/27 11:11:01;;;;;;;;;;;;;;;-7.54;84.94;97687.67;1749884;81;24454;-85
2021/12/27 11:13:28;;;;;;;;;;;;;;;-7.50;84.97;97682.97;1754640;81;20236;-85
2021/12/27 11:15:54;;;;;;;;;;;;;;;-7.44;85.02;97684.59;1759037;81;24893;-85
2021/12/27 11:18:20;;;;;;;;;;;;;;;-7.42;85.05;97677.81;1760206;81;22031;-84
2021/12/27 11:20:48;;;;;;;;;;;;;;;-7.34;85.11;97675.58;1751711;81;25951;-84
2021/12/27 11:23:22;;;;;;;;;;;;;;;-7.30;85.17;97668.33;1754133;81;24483;-85
2021/12/27 11:25:48;;;;;;;;;;;;;;;-7.25;85.21;97675.89;1758184;81;20158;-86
2021/12/27 11:28:32;;;;;;;;;;;;;;;-7.17;85.30;97675.38;1758230;81;24943;-85
2021/12/27 11:31:00;;;;;;;;;;;;;;;-7.12;85.36;97672.35;1757772;81;21960;-87
2021/12/27 11:33:27;;;;;;;;;;;;;;;-7.05;85.43;97664.23;1688863;82;26833;-85
2021/12/27 11:35:58;;;;;;;;;;;;;;;-7.00;85.48;97663.30;1703060;83;24435;-85
2021/12/27 11:38:28;;;;;;;;;;;;;;;-6.96;85.54;97659.01;1735957;80;20320;-85
2021/12/27 11:40:55;;;;;;;;;;;;;;;-6.96;85.58;97656.03;1710371;82;24789;-85
2021/12/27 11:43:21;;;;;;;;;;;;;;;-6.97;85.56;97652.23;1747792;81;21889;-85
2021/12/27 11:45:49;;;;;;;;;;;;;;;-6.98;85.56;97648.04;1748368;81;26028;-85
2021/12/27 11:48:16;;;;;;;;;;;;;;;-6.95;85.53;97651.37;1745018;81;24516;-85
2021/12/27 11:51:03;;;;;;;;;;;;;;;-6.91;85.54;97647.91;1747193;81;20254;-86
2021/12/27 11:53:31;;;;;;;;;;;;;;;-6.89;85.56;97644.09;1729003;81;25205;-86
2021/12/27 11:55:58;;;;;;;;;;;;;;;-6.88;85.55;97635.17;1750018;81;22146;-86
2021/12/27 11:58:32;;;;;;;;;;;;;;;-6.83;85.57;97633.41;1750552;81;25988;-85
2021/12/27 12:00:59;;;;;;;;;;;;;;;-6.77;85.61;97638.84;1753227;81;24420;-85
2021/12/27 12:03:39;;;;;;;;;;;;;;;-6.73;85.65;97644.70;1748220;81;20348;-86
2021/12/27 12:06:06;;;;;;;;;;;;;;;-6.70;85.68;97640.83;1750701;81;24992;-86
2021/12/27 12:08:40;;;;;;;;;;;;;;;-6.68;85.72;97634.88;1749156;81;22009;-86
2021/12/27 12:11:08;;;;;;;;;;;;;;;-6.67;85.71;97637.84;1723822;81;26647;-85
2021/12/27 12:13:47;;;;;;;;;;;;;;;-6.64;85.70;97637.78;1750549;81;24031;-86
2021/12/27 12:16:11;;;;;;;;;;;;;;;-6.62;85.71;97628.43;1748473;81;20294;-85
2021/12/27 12:18:40;;;;;;;;;;;;;;;-6.60;85.72;97624.59;1752341;81;24859;-86
2021/12/27 12:21:25;;;;;;;;;;;;;;;-6.58;85.72;97624.13;1753217;81;22689;-86
2021/12/27 12:24:00;;;;;;;;;;;;;;;-6.58;85.70;97620.31;1750953;81;26026;-86
2021/12/27 12:26:28;;;;;;;;;;;;;;;-6.57;85.72;97611.81;1747494;80;24450;-86
2021/12/27 12:29:01;;;;;;;;;;;;;;;-6.51;85.75;97613.00;1742569;80;20307;-86
2021/12/27 12:31:30;;;;;;;;;;;;;;;-6.42;85.80;97609.02;1747795;80;24752;-85
2021/12/27 12:33:57;;;;;;;;;;;;;;;-6.40;85.87;97604.76;1740039;81;22134;-86
2021/12/27 12:36:24;;;;;;;;;;;;;;;-6.36;85.92;97607.66;1750342;81;25981;-85
2021/12/27 12:38:50;;;;;;;;;;;;;;;-6.36;85.96;97602.13;1757511;80;24003;-84
2021/12/27 12:41:18;;;;;;;;;;;;;;;-6.36;85.96;97603.41;1751685;80;20218;-84
2021/12/27 12:43:57;;;;;;;;;;;;;;;-6.37;85.97;97603.42;1757713;80;24815;-84
2021/12/27 12:46:38;;;;;;;;;;;;;;;-6.37;85.95;97607.24;1750691;81;21999;-84
2021/12/27 12:49:06;;;;;;;;;;;;;;;-6.33;85.97;97608.89;1746218;80;25986;-85